Terminal Aerodrome Forecast
Issued by NWS

Home | Current Version | Previous Version | Text Only | Print | Product List | Glossary On
Versions: 1 2 3 4 5 6 7 8 9 10 11 12
000
FTUS46 KPDT 161700
TAFPSC
TAF
KPSC 161733Z 1618/1718 32006KT P6SM FEW250
     FM170000 VRB05KT P6SM SKC
     FM170600 VRB04KT P6SM FEW180 SCT250
     FM171000 VRB03KT P6SM FEW120 OVC150=

USA.gov is the U.S. government's official web portal to all federal, state and local government web resources and services.